EDDC/DRS METAR and TAF weather

Enter ICAO airport designator
Station Type Date Time Source
EDDC METAR 2020/07/06 02:20 UTC NOAA

EDDC 060220Z 23006KT 9999 SCT042 21/14 Q1010


Station Type Date Time Source
EDDC Decoded METAR 2020/07/06 02:20 UTC NOAA

Dresden-Klotzsche, Germany (EDDC) 51-08N 013-45E 232M
Jul 05, 2020 - 10:20 PM EDT / 2020.07.06 0220 UTC
Wind: from the SW (230 degrees) at 7 MPH (6 KT):0
Visibility: greater than 7 mile(s):0
Sky conditions: partly cloudy
Temperature: 69 F (21 C)
Dew Point: 57 F (14 C)
Relative Humidity: 64%
Pressure (altimeter): 29.83 in. Hg (1010 hPa)
ob: EDDC 060220Z 23006KT 9999 SCT042 21/14 Q1010
cycle: 2

Station Type Date Time Source
EDDC TAF 2020/07/05 18:27 UTC NOAA

TAF EDDC 051700Z 0518/0618 25015G25KT 9999 SCT045
BECMG 0518/0520 24007KT
BECMG 0603/0605 25012KT
BECMG 0605/0609 26015G25KT

Example: see airport list